Aérodrome :
LOGIN :

S'inscrire | Disclaimer

   EN    FR    IT 

 










Légende :    VFR   VFR Marginal   IFR   IFR Intensif   IFR Très Intensif
Visi : 
Plafond : 
>= 8 km
>= 3000ft
5 à 8 km
1000 à 3000 ft
1500m à 5 km
500 à 1000 ft
800 à 1500m
200 à 500 ft
< 800m
< 200 ft
Symboles :   Orages  Brouillard  Fortes neiges  Fortes précipitations  Vent > 20 kt
SIGMETs :   Divers  Orages  Givrage  Turbulence  Onde Orograph.  Cendres Volcan.







- Altitude de l'aérodrome : 112 ft
- Code IATA : SVQ


LEZL - Sevilla San Pablo

DERNIER METAR :
  • 151630Z 19012KT 160V250 2500 +RA OVC006 BKN020 17/16 Q1010 NOSIG

METARs EXPIRÉS :
  • 151624Z 19014KT 160V220 1500 +RA OVC006 BKN020 17/16 Q1009 NOSIG
  • 151600Z 19015G27KT 150V230 4000 RA BKN008 BKN020 17/16 Q1009 NOSIG
  • 151530Z 20012G22KT 140V260 6000 -RA BKN008 BKN025 17/16 Q1010 RERA NOSIG
  • 151518Z 21013KT 160V250 4000 RA BKN010 BKN025 17/16 Q1010 NOSIG
  • 151513Z 21015KT 160V250 4500 -RA BKN010 BKN030 17/15 Q1010 NOSIG
  • 151500Z 22017G28KT 170V240 8000 -RA BKN025 SCT040 18/15 Q1010 NOSIG
  • 151430Z 22018G28KT 170V250 9999 -RA FEW030 BKN040 19/14 Q1010 NOSIG
  • 151400Z 22019KT 190V250 9999 FEW030 BKN040 20/13 Q1011 TEMPO 4000 RA

TAF AMD TAF LEZL
Valide du 15 à 16h jusqu'au 16 à 15h UTC


151625Z 1516/1615 21010KT 9999 SCT015 BKN025 TX24/1614Z TN12/1606Z
PROB40
TEMPO 1516/1518 21015G25KT
TEMPO 1516/1519 4000 RA BKN008
BECMG 1518/1520 VRB03KT
PROB30
TEMPO 1522/1608 3000 BR BKN008
Pas de NOTAMs connus pour ce terrain.



MET'MAP, la Météo Aéronautique d'un coup d'oeil ! - Copyright ORBIFLY Décembre 2007 - Disclaimer

ORBIFLY MET'MAP TEAM :

Programmation & Développement : Alexandra Zaïnal
Conception & Développement : Baudouin d'Aumeries
Co-Programmation & Développement : Marc-Olivier Méhu
Soutien technique & logistique : Manuel Goepfert

Contact : metmap@orbifly.com




SOURCES & CREDITS :

   NOAA